sensor_id;sensor_type;location;lat;lon;timestamp;pressure;altitude;pressure_sealevel;temperature;humidity
59487;BME280;45298;54.918;73.504;2023-08-30T00:00:24;98875.09;;;17.91;49.01
59487;BME280;45298;54.918;73.504;2023-08-30T00:02:53;98890.00;;;17.93;49.36
59487;BME280;45298;54.918;73.504;2023-08-30T00:05:24;98876.59;;;17.85;49.35
59487;BME280;45298;54.918;73.504;2023-08-30T00:07:54;98853.09;;;17.87;49.50
59487;BME280;45298;54.918;73.504;2023-08-30T00:10:23;98886.13;;;17.96;49.54
59487;BME280;45298;54.918;73.504;2023-08-30T00:12:51;98884.28;;;17.96;49.81
59487;BME280;45298;54.918;73.504;2023-08-30T00:15:20;98868.72;;;17.92;49.73
59487;BME280;45298;54.918;73.504;2023-08-30T00:17:49;98872.41;;;17.91;49.97
59487;BME280;45298;54.918;73.504;2023-08-30T00:20:21;98859.66;;;17.85;49.76
59487;BME280;45298;54.918;73.504;2023-08-30T00:22:50;98852.63;;;17.83;50.05
59487;BME280;45298;54.918;73.504;2023-08-30T00:25:20;98861.66;;;17.91;50.50
59487;BME280;45298;54.918;73.504;2023-08-30T00:27:49;98859.00;;;17.91;50.22
59487;BME280;45298;54.918;73.504;2023-08-30T00:30:17;98842.38;;;17.87;50.13
59487;BME280;45298;54.918;73.504;2023-08-30T00:32:47;98855.63;;;17.89;50.16
59487;BME280;45298;54.918;73.504;2023-08-30T00:35:16;98832.84;;;17.85;50.14
59487;BME280;45298;54.918;73.504;2023-08-30T00:37:45;98832.84;;;17.93;50.26
59487;BME280;45298;54.918;73.504;2023-08-30T00:40:14;98853.44;;;17.92;49.96
59487;BME280;45298;54.918;73.504;2023-08-30T00:42:43;98836.53;;;17.92;49.85
59487;BME280;45298;54.918;73.504;2023-08-30T00:45:12;98850.78;;;18.01;49.61
59487;BME280;45298;54.918;73.504;2023-08-30T00:47:42;98833.00;;;18.00;49.96
59487;BME280;45298;54.918;73.504;2023-08-30T00:50:11;98836.16;;;18.03;49.60
59487;BME280;45298;54.918;73.504;2023-08-30T00:52:41;98822.94;;;18.02;49.48
59487;BME280;45298;54.918;73.504;2023-08-30T00:55:10;98817.03;;;18.06;49.61
59487;BME280;45298;54.918;73.504;2023-08-30T00:57:40;98843.81;;;18.15;49.48
59487;BME280;45298;54.918;73.504;2023-08-30T01:00:09;98828.91;;;18.12;49.31
59487;BME280;45298;54.918;73.504;2023-08-30T01:02:40;98834.75;;;18.16;49.66
59487;BME280;45298;54.918;73.504;2023-08-30T01:05:09;98807.97;;;18.07;49.38
59487;BME280;45298;54.918;73.504;2023-08-30T01:07:38;98844.66;;;18.23;49.61
59487;BME280;45298;54.918;73.504;2023-08-30T01:10:07;98830.19;;;18.24;49.02
59487;BME280;45298;54.918;73.504;2023-08-30T01:12:48;98809.59;;;18.17;49.28
59487;BME280;45298;54.918;73.504;2023-08-30T01:15:19;98834.56;;;18.25;49.05
59487;BME280;45298;54.918;73.504;2023-08-30T01:17:52;98810.13;;;18.20;49.34
59487;BME280;45298;54.918;73.504;2023-08-30T01:20:22;98814.47;;;18.21;48.81
59487;BME280;45298;54.918;73.504;2023-08-30T01:23:06;98834.41;;;18.27;49.08
59487;BME280;45298;54.918;73.504;2023-08-30T01:26:16;98820.50;;;18.23;49.64
59487;BME280;45298;54.918;73.504;2023-08-30T01:28:51;98812.59;;;18.22;49.54
59487;BME280;45298;54.918;73.504;2023-08-30T01:31:21;98784.31;;;18.11;49.70
59487;BME280;45298;54.918;73.504;2023-08-30T01:33:51;98789.22;;;18.07;49.58
59487;BME280;45298;54.918;73.504;2023-08-30T01:36:21;98788.84;;;18.10;50.30
59487;BME280;45298;54.918;73.504;2023-08-30T01:38:51;98792.69;;;18.16;50.06
59487;BME280;45298;54.918;73.504;2023-08-30T01:41:21;98797.84;;;18.18;50.02
59487;BME280;45298;54.918;73.504;2023-08-30T01:43:53;98806.56;;;18.20;49.73
59487;BME280;45298;54.918;73.504;2023-08-30T01:46:23;98781.50;;;18.04;49.63
59487;BME280;45298;54.918;73.504;2023-08-30T01:48:53;98788.50;;;18.14;50.39
59487;BME280;45298;54.918;73.504;2023-08-30T01:51:23;98765.78;;;17.93;49.67
59487;BME280;45298;54.918;73.504;2023-08-30T01:53:54;98796.69;;;18.20;49.74
59487;BME280;45298;54.918;73.504;2023-08-30T01:56:24;98808.91;;;18.23;50.01
59487;BME280;45298;54.918;73.504;2023-08-30T01:58:53;98801.53;;;18.25;49.72
59487;BME280;45298;54.918;73.504;2023-08-30T02:01:22;98766.72;;;18.08;50.16
59487;BME280;45298;54.918;73.504;2023-08-30T02:03:52;98818.56;;;18.40;50.43
59487;BME280;45298;54.918;73.504;2023-08-30T02:06:28;98812.53;;;18.38;50.40
59487;BME280;45298;54.918;73.504;2023-08-30T02:11:55;98752.13;;;18.11;50.14
59487;BME280;45298;54.918;73.504;2023-08-30T02:14:28;98805.59;;;18.44;50.10
59487;BME280;45298;54.918;73.504;2023-08-30T02:16:58;98757.47;;;18.11;50.64
59487;BME280;45298;54.918;73.504;2023-08-30T02:19:27;98821.25;;;18.40;51.11
59487;BME280;45298;54.918;73.504;2023-08-30T02:21:56;98797.28;;;18.31;51.65
59487;BME280;45298;54.918;73.504;2023-08-30T02:24:25;98813.75;;;18.27;52.20
59487;BME280;45298;54.918;73.504;2023-08-30T02:26:56;98796.25;;;18.08;52.38
59487;BME280;45298;54.918;73.504;2023-08-30T02:29:25;98823.06;;;18.08;52.80
59487;BME280;45298;54.918;73.504;2023-08-30T02:31:54;98793.94;;;17.89;53.65
59487;BME280;45298;54.918;73.504;2023-08-30T02:34:22;98809.03;;;17.90;53.55
59487;BME280;45298;54.918;73.504;2023-08-30T02:36:52;98756.97;;;17.67;53.12
59487;BME280;45298;54.918;73.504;2023-08-30T02:39:21;98784.56;;;17.93;53.35
59487;BME280;45298;54.918;73.504;2023-08-30T02:41:50;98796.25;;;18.08;53.19
59487;BME280;45298;54.918;73.504;2023-08-30T02:44:20;98790.47;;;18.20;53.62
59487;BME280;45298;54.918;73.504;2023-08-30T02:46:48;98774.38;;;18.20;53.45
59487;BME280;45298;54.918;73.504;2023-08-30T02:49:17;98779.28;;;18.39;53.08
59487;BME280;45298;54.918;73.504;2023-08-30T02:51:46;98784.88;;;18.61;53.18
59487;BME280;45298;54.918;73.504;2023-08-30T02:54:15;98757.41;;;18.97;52.39
59487;BME280;45298;54.918;73.504;2023-08-30T02:56:44;98755.53;;;19.21;51.46
59487;BME280;45298;54.918;73.504;2023-08-30T02:59:12;98766.03;;;19.46;51.04
59487;BME280;45298;54.918;73.504;2023-08-30T03:01:43;98744.69;;;19.59;50.63
59487;BME280;45298;54.918;73.504;2023-08-30T03:04:14;98757.66;;;19.86;50.21
59487;BME280;45298;54.918;73.504;2023-08-30T03:06:43;98764.38;;;20.05;50.21
59487;BME280;45298;54.918;73.504;2023-08-30T03:09:13;98743.00;;;20.03;49.53
59487;BME280;45298;54.918;73.504;2023-08-30T03:11:44;98743.28;;;20.08;49.03
59487;BME280;45298;54.918;73.504;2023-08-30T03:14:13;98713.31;;;19.82;49.32
59487;BME280;45298;54.918;73.504;2023-08-30T03:16:43;98764.00;;;20.08;49.59
59487;BME280;45298;54.918;73.504;2023-08-30T03:19:15;98751.47;;;20.00;49.29
59487;BME280;45298;54.918;73.504;2023-08-30T03:21:46;98747.75;;;20.01;49.59
59487;BME280;45298;54.918;73.504;2023-08-30T03:24:15;98750.63;;;20.00;49.26
59487;BME280;45298;54.918;73.504;2023-08-30T03:26:44;98740.31;;;20.03;49.58
59487;BME280;45298;54.918;73.504;2023-08-30T03:29:13;98725.31;;;19.94;49.87
59487;BME280;45298;54.918;73.504;2023-08-30T03:31:42;98724.75;;;19.99;49.38
59487;BME280;45298;54.918;73.504;2023-08-30T03:34:14;98716.66;;;19.99;48.92
59487;BME280;45298;54.918;73.504;2023-08-30T03:36:43;98713.59;;;20.02;48.78
59487;BME280;45298;54.918;73.504;2023-08-30T03:39:14;98714.38;;;20.17;48.89
59487;BME280;45298;54.918;73.504;2023-08-30T03:41:42;98722.13;;;20.42;48.37
59487;BME280;45298;54.918;73.504;2023-08-30T03:44:11;98726.47;;;20.65;48.58
59487;BME280;45298;54.918;73.504;2023-08-30T03:46:40;98714.28;;;20.69;47.66
59487;BME280;45298;54.918;73.504;2023-08-30T03:49:09;98723.97;;;20.85;47.18
59487;BME280;45298;54.918;73.504;2023-08-30T03:51:38;98728.28;;;20.79;47.02
59487;BME280;45298;54.918;73.504;2023-08-30T03:54:07;98724.94;;;20.77;46.51
59487;BME280;45298;54.918;73.504;2023-08-30T03:56:36;98685.75;;;20.53;46.41
59487;BME280;45298;54.918;73.504;2023-08-30T03:59:05;98735.00;;;20.90;47.06
59487;BME280;45298;54.918;73.504;2023-08-30T04:01:34;98733.78;;;20.93;47.07
59487;BME280;45298;54.918;73.504;2023-08-30T04:04:03;98725.19;;;20.82;47.53
59487;BME280;45298;54.918;73.504;2023-08-30T04:06:33;98700.69;;;20.77;47.17
59487;BME280;45298;54.918;73.504;2023-08-30T04:09:04;98713.00;;;20.87;46.89
59487;BME280;45298;54.918;73.504;2023-08-30T04:11:32;98724.72;;;21.01;46.44
59487;BME280;45298;54.918;73.504;2023-08-30T04:14:02;98721.66;;;21.10;46.82
59487;BME280;45298;54.918;73.504;2023-08-30T04:16:30;98663.03;;;20.84;45.91
59487;BME280;45298;54.918;73.504;2023-08-30T04:18:59;98719.72;;;21.26;46.26
59487;BME280;45298;54.918;73.504;2023-08-30T04:21:29;98717.03;;;21.26;46.76
59487;BME280;45298;54.918;73.504;2023-08-30T04:23:58;98721.63;;;21.32;46.14
59487;BME280;45298;54.918;73.504;2023-08-30T04:26:26;98736.38;;;21.36;45.87
59487;BME280;45298;54.918;73.504;2023-08-30T04:28:56;98737.56;;;21.27;45.81
59487;BME280;45298;54.918;73.504;2023-08-30T04:31:25;98689.19;;;20.90;45.92
59487;BME280;45298;54.918;73.504;2023-08-30T04:33:54;98739.50;;;21.11;45.72
59487;BME280;45298;54.918;73.504;2023-08-30T04:36:23;98746.34;;;21.07;45.55
59487;BME280;45298;54.918;73.504;2023-08-30T04:38:52;98697.06;;;20.70;45.37
59487;BME280;45298;54.918;73.504;2023-08-30T04:41:32;98725.25;;;20.89;45.62
59487;BME280;45298;54.918;73.504;2023-08-30T04:44:02;98730.44;;;20.91;46.19
59487;BME280;45298;54.918;73.504;2023-08-30T04:46:30;98726.72;;;20.92;46.25
59487;BME280;45298;54.918;73.504;2023-08-30T04:48:59;98723.50;;;21.03;46.07
59487;BME280;45298;54.918;73.504;2023-08-30T04:51:28;98710.72;;;20.83;45.92
59487;BME280;45298;54.918;73.504;2023-08-30T04:53:56;98766.28;;;21.13;46.79
59487;BME280;45298;54.918;73.504;2023-08-30T04:56:26;98756.66;;;21.04;46.44
59487;BME280;45298;54.918;73.504;2023-08-30T04:58:55;98787.66;;;21.14;46.72
59487;BME280;45298;54.918;73.504;2023-08-30T05:01:25;98734.97;;;20.83;46.02
59487;BME280;45298;54.918;73.504;2023-08-30T05:03:57;98790.34;;;21.14;46.11
59487;BME280;45298;54.918;73.504;2023-08-30T05:06:26;98782.81;;;21.03;46.70
59487;BME280;45298;54.918;73.504;2023-08-30T05:08:55;98775.34;;;21.05;46.29
59487;BME280;45298;54.918;73.504;2023-08-30T05:11:24;98782.25;;;21.14;46.08
59487;BME280;45298;54.918;73.504;2023-08-30T05:13:53;98792.75;;;21.31;46.56
59487;BME280;45298;54.918;73.504;2023-08-30T05:16:22;98777.22;;;21.33;46.35
59487;BME280;45298;54.918;73.504;2023-08-30T05:18:52;98771.03;;;21.39;46.11
59487;BME280;45298;54.918;73.504;2023-08-30T05:21:21;98767.34;;;21.47;45.53
59487;BME280;45298;54.918;73.504;2023-08-30T05:23:50;98788.97;;;21.54;45.78
59487;BME280;45298;54.918;73.504;2023-08-30T05:26:19;98792.31;;;21.56;45.75
59487;BME280;45298;54.918;73.504;2023-08-30T05:28:48;98810.66;;;21.67;46.20
59487;BME280;45298;54.918;73.504;2023-08-30T05:31:17;98809.03;;;21.66;46.86
59487;BME280;45298;54.918;73.504;2023-08-30T05:34:12;98768.13;;;21.41;45.87
59487;BME280;45298;54.918;73.504;2023-08-30T05:36:41;98787.22;;;21.39;45.56
59487;BME280;45298;54.918;73.504;2023-08-30T05:39:34;98788.00;;;21.33;46.37
59487;BME280;45298;54.918;73.504;2023-08-30T05:42:03;98773.88;;;21.31;46.31
59487;BME280;45298;54.918;73.504;2023-08-30T05:44:32;98801.94;;;21.37;46.36
59487;BME280;45298;54.918;73.504;2023-08-30T05:47:01;98793.34;;;21.26;46.80
59487;BME280;45298;54.918;73.504;2023-08-30T05:49:30;98753.41;;;21.08;46.81
59487;BME280;45298;54.918;73.504;2023-08-30T05:51:58;98809.84;;;21.38;48.37
59487;BME280;45298;54.918;73.504;2023-08-30T05:54:27;98781.28;;;21.22;47.43
59487;BME280;45298;54.918;73.504;2023-08-30T05:57:00;98786.28;;;21.25;46.73
59487;BME280;45298;54.918;73.504;2023-08-30T05:59:29;98778.16;;;21.19;47.58
59487;BME280;45298;54.918;73.504;2023-08-30T06:01:57;98763.13;;;21.09;47.24
59487;BME280;45298;54.918;73.504;2023-08-30T06:04:26;98772.13;;;21.17;47.19
59487;BME280;45298;54.918;73.504;2023-08-30T06:06:55;98768.53;;;21.09;48.10
59487;BME280;45298;54.918;73.504;2023-08-30T06:09:24;98771.22;;;21.09;46.67
59487;BME280;45298;54.918;73.504;2023-08-30T06:11:54;98767.13;;;21.13;48.09
59487;BME280;45298;54.918;73.504;2023-08-30T06:14:26;98740.84;;;20.94;48.02
59487;BME280;45298;54.918;73.504;2023-08-30T06:16:58;98754.28;;;21.16;48.16
59487;BME280;45298;54.918;73.504;2023-08-30T06:19:26;98733.09;;;21.12;47.00
59487;BME280;45298;54.918;73.504;2023-08-30T06:21:55;98726.44;;;21.08;47.19
59487;BME280;45298;54.918;73.504;2023-08-30T06:24:24;98711.06;;;21.02;47.01
59487;BME280;45298;54.918;73.504;2023-08-30T06:26:53;98713.38;;;21.05;47.38
59487;BME280;45298;54.918;73.504;2023-08-30T06:29:21;98713.53;;;21.04;47.50
59487;BME280;45298;54.918;73.504;2023-08-30T06:31:50;98721.50;;;21.12;47.44
59487;BME280;45298;54.918;73.504;2023-08-30T06:34:19;98720.06;;;21.16;47.81
59487;BME280;45298;54.918;73.504;2023-08-30T06:36:48;98698.44;;;21.09;47.76
59487;BME280;45298;54.918;73.504;2023-08-30T06:39:17;98694.28;;;21.07;47.62
59487;BME280;45298;54.918;73.504;2023-08-30T06:41:47;98688.38;;;21.18;47.29
59487;BME280;45298;54.918;73.504;2023-08-30T06:44:16;98665.47;;;21.07;46.30
59487;BME280;45298;54.918;73.504;2023-08-30T06:46:45;98689.19;;;21.19;45.79
59487;BME280;45298;54.918;73.504;2023-08-30T06:49:14;98694.44;;;21.27;45.96
59487;BME280;45298;54.918;73.504;2023-08-30T06:51:42;98670.56;;;21.24;46.74
59487;BME280;45298;54.918;73.504;2023-08-30T06:54:11;98676.00;;;21.37;46.32
59487;BME280;45298;54.918;73.504;2023-08-30T06:56:40;98663.94;;;21.33;45.89
59487;BME280;45298;54.918;73.504;2023-08-30T06:59:09;98653.16;;;21.33;45.72
59487;BME280;45298;54.918;73.504;2023-08-30T07:01:38;98674.78;;;21.40;46.86
59487;BME280;45298;54.918;73.504;2023-08-30T07:04:07;98678.09;;;21.42;46.16
59487;BME280;45298;54.918;73.504;2023-08-30T07:06:38;98670.84;;;21.42;45.66
59487;BME280;45298;54.918;73.504;2023-08-30T07:09:07;98661.75;;;21.43;45.18
59487;BME280;45298;54.918;73.504;2023-08-30T07:11:36;98662.38;;;21.46;44.75
59487;BME280;45298;54.918;73.504;2023-08-30T07:14:04;98673.91;;;21.68;44.51
59487;BME280;45298;54.918;73.504;2023-08-30T07:16:33;98661.47;;;21.73;44.89
59487;BME280;45298;54.918;73.504;2023-08-30T07:19:02;98659.81;;;21.79;44.67
59487;BME280;45298;54.918;73.504;2023-08-30T07:21:31;98661.69;;;21.79;44.25
59487;BME280;45298;54.918;73.504;2023-08-30T07:24:01;98644.44;;;21.66;44.52
59487;BME280;45298;54.918;73.504;2023-08-30T07:26:30;98646.53;;;21.71;44.75
59487;BME280;45298;54.918;73.504;2023-08-30T07:28:58;98625.94;;;21.63;44.82
59487;BME280;45298;54.918;73.504;2023-08-30T07:31:27;98640.50;;;21.69;44.77
59487;BME280;45298;54.918;73.504;2023-08-30T07:33:56;98630.94;;;21.66;44.94
59487;BME280;45298;54.918;73.504;2023-08-30T07:36:27;98643.00;;;21.77;44.38
59487;BME280;45298;54.918;73.504;2023-08-30T07:39:13;98634.50;;;21.80;44.88
59487;BME280;45298;54.918;73.504;2023-08-30T07:41:42;98597.69;;;21.59;44.33
59487;BME280;45298;54.918;73.504;2023-08-30T07:44:10;98636.63;;;21.92;44.99
59487;BME280;45298;54.918;73.504;2023-08-30T07:46:39;98636.81;;;21.90;44.30
59487;BME280;45298;54.918;73.504;2023-08-30T07:49:08;98644.72;;;21.98;44.43
59487;BME280;45298;54.918;73.504;2023-08-30T07:51:37;98634.34;;;21.95;43.88
59487;BME280;45298;54.918;73.504;2023-08-30T07:54:08;98645.38;;;22.00;44.42
59487;BME280;45298;54.918;73.504;2023-08-30T07:56:37;98653.47;;;22.07;44.56
59487;BME280;45298;54.918;73.504;2023-08-30T07:59:06;98644.75;;;22.12;44.29
59487;BME280;45298;54.918;73.504;2023-08-30T08:01:34;98610.47;;;21.99;44.12
59487;BME280;45298;54.918;73.504;2023-08-30T08:04:03;98619.00;;;22.02;43.99
59487;BME280;45298;54.918;73.504;2023-08-30T08:06:34;98606.09;;;21.98;44.74
59487;BME280;45298;54.918;73.504;2023-08-30T08:09:05;98599.25;;;21.95;44.38
59487;BME280;45298;54.918;73.504;2023-08-30T08:11:35;98583.44;;;21.85;44.68
59487;BME280;45298;54.918;73.504;2023-08-30T08:14:04;98600.69;;;21.98;45.18
59487;BME280;45298;54.918;73.504;2023-08-30T08:16:33;98562.47;;;21.74;44.67
59487;BME280;45298;54.918;73.504;2023-08-30T08:19:02;98598.22;;;22.10;44.61
59487;BME280;45298;54.918;73.504;2023-08-30T08:21:31;98602.41;;;22.19;45.06
59487;BME280;45298;54.918;73.504;2023-08-30T08:24:01;98619.84;;;22.37;44.81
59487;BME280;45298;54.918;73.504;2023-08-30T08:26:30;98619.88;;;22.43;44.16
59487;BME280;45298;54.918;73.504;2023-08-30T08:28:59;98607.19;;;22.64;43.73
59487;BME280;45298;54.918;73.504;2023-08-30T08:31:28;98592.44;;;22.80;43.66
59487;BME280;45298;54.918;73.504;2023-08-30T08:34:11;98586.16;;;22.86;43.92
59487;BME280;45298;54.918;73.504;2023-08-30T08:36:41;98584.69;;;22.90;44.11
59487;BME280;45298;54.918;73.504;2023-08-30T08:39:11;98596.13;;;22.99;43.41
59487;BME280;45298;54.918;73.504;2023-08-30T08:41:43;98579.91;;;22.92;43.58
59487;BME280;45298;54.918;73.504;2023-08-30T08:44:16;98594.88;;;23.02;43.68
59487;BME280;45298;54.918;73.504;2023-08-30T08:46:46;98575.34;;;22.93;43.69
59487;BME280;45298;54.918;73.504;2023-08-30T08:49:17;98574.94;;;22.89;44.13
59487;BME280;45298;54.918;73.504;2023-08-30T08:51:46;98578.25;;;22.91;44.60
59487;BME280;45298;54.918;73.504;2023-08-30T08:54:17;98536.34;;;22.55;44.53
59487;BME280;45298;54.918;73.504;2023-08-30T08:56:50;98587.22;;;22.78;44.77
59487;BME280;45298;54.918;73.504;2023-08-30T08:59:19;98568.13;;;22.60;45.22
59487;BME280;45298;54.918;73.504;2023-08-30T09:01:49;98549.00;;;22.34;45.08
59487;BME280;45298;54.918;73.504;2023-08-30T09:04:21;98590.59;;;22.54;45.70
59487;BME280;45298;54.918;73.504;2023-08-30T09:06:50;98593.28;;;22.47;45.70
59487;BME280;45298;54.918;73.504;2023-08-30T09:09:21;98577.47;;;22.30;45.35
59487;BME280;45298;54.918;73.504;2023-08-30T09:11:51;98578.09;;;22.26;46.08
59487;BME280;45298;54.918;73.504;2023-08-30T09:14:20;98587.22;;;22.18;46.55
59487;BME280;45298;54.918;73.504;2023-08-30T09:17:00;98589.09;;;22.11;45.99
59487;BME280;45298;54.918;73.504;2023-08-30T09:19:29;98604.66;;;22.09;46.24
59487;BME280;45298;54.918;73.504;2023-08-30T09:21:59;98616.72;;;22.13;46.75
59487;BME280;45298;54.918;73.504;2023-08-30T09:24:39;98613.78;;;22.08;47.17
59487;BME280;45298;54.918;73.504;2023-08-30T09:27:08;98610.69;;;22.04;47.95
59487;BME280;45298;54.918;73.504;2023-08-30T09:29:37;98598.63;;;21.93;48.79
59487;BME280;45298;54.918;73.504;2023-08-30T09:32:07;98628.53;;;21.98;49.83
59487;BME280;45298;54.918;73.504;2023-08-30T09:34:45;98633.44;;;21.74;50.17
59487;BME280;45298;54.918;73.504;2023-08-30T09:37:22;98630.13;;;21.72;49.92
59487;BME280;45298;54.918;73.504;2023-08-30T09:39:51;98641.75;;;21.66;50.32
59487;BME280;45298;54.918;73.504;2023-08-30T09:42:20;98641.25;;;21.56;50.11
59487;BME280;45298;54.918;73.504;2023-08-30T09:44:50;98629.53;;;21.35;50.55
59487;BME280;45298;54.918;73.504;2023-08-30T09:47:19;98650.84;;;21.30;50.18
59487;BME280;45298;54.918;73.504;2023-08-30T09:49:49;98668.88;;;21.23;49.90
59487;BME280;45298;54.918;73.504;2023-08-30T09:52:23;98666.28;;;21.08;50.22
59487;BME280;45298;54.918;73.504;2023-08-30T09:54:52;98672.03;;;20.98;50.91
59487;BME280;45298;54.918;73.504;2023-08-30T09:57:22;98639.00;;;20.61;50.89
59487;BME280;45298;54.918;73.504;2023-08-30T09:59:51;98644.06;;;20.49;51.25
59487;BME280;45298;54.918;73.504;2023-08-30T10:02:20;98687.84;;;20.58;51.67
59487;BME280;45298;54.918;73.504;2023-08-30T10:04:50;98716.19;;;20.53;52.38
59487;BME280;45298;54.918;73.504;2023-08-30T10:07:20;98713.75;;;20.37;53.05
59487;BME280;45298;54.918;73.504;2023-08-30T10:09:51;98704.00;;;20.14;53.13
59487;BME280;45298;54.918;73.504;2023-08-30T10:12:37;98704.13;;;20.06;53.78
59487;BME280;45298;54.918;73.504;2023-08-30T10:15:07;98720.38;;;19.98;53.94
59487;BME280;45298;54.918;73.504;2023-08-30T10:17:38;98714.81;;;19.84;55.09
59487;BME280;45298;54.918;73.504;2023-08-30T10:20:10;98695.47;;;19.59;55.70
59487;BME280;45298;54.918;73.504;2023-08-30T10:22:41;98718.66;;;19.60;56.19
59487;BME280;45298;54.918;73.504;2023-08-30T10:25:16;98713.94;;;19.47;56.53
59487;BME280;45298;54.918;73.504;2023-08-30T10:27:49;98726.44;;;19.40;57.08
59487;BME280;45298;54.918;73.504;2023-08-30T10:30:20;98743.28;;;19.33;58.78
59487;BME280;45298;54.918;73.504;2023-08-30T10:32:50;98738.38;;;19.22;59.81
59487;BME280;45298;54.918;73.504;2023-08-30T10:35:19;98718.44;;;19.01;60.69
59487;BME280;45298;54.918;73.504;2023-08-30T10:37:55;98732.56;;;18.95;61.43
59487;BME280;45298;54.918;73.504;2023-08-30T10:40:24;98737.34;;;18.85;62.15
59487;BME280;45298;54.918;73.504;2023-08-30T10:43:03;98708.34;;;18.57;64.01
59487;BME280;45298;54.918;73.504;2023-08-30T10:45:32;98709.09;;;18.51;64.42
59487;BME280;45298;54.918;73.504;2023-08-30T10:48:04;98717.00;;;18.44;65.71
59487;BME280;45298;54.918;73.504;2023-08-30T10:50:34;98727.94;;;18.42;66.54
59487;BME280;45298;54.918;73.504;2023-08-30T10:53:03;98729.66;;;18.35;67.85
59487;BME280;45298;54.918;73.504;2023-08-30T10:55:41;98756.22;;;18.30;68.76
59487;BME280;45298;54.918;73.504;2023-08-30T10:58:13;98750.94;;;18.14;70.45
59487;BME280;45298;54.918;73.504;2023-08-30T11:00:46;98768.28;;;18.03;69.38
59487;BME280;45298;54.918;73.504;2023-08-30T11:03:28;98773.28;;;17.97;70.00
59487;BME280;45298;54.918;73.504;2023-08-30T11:06:03;98761.44;;;17.83;70.62
59487;BME280;45298;54.918;73.504;2023-08-30T11:08:33;98770.97;;;17.86;71.63
59487;BME280;45298;54.918;73.504;2023-08-30T11:11:07;98762.13;;;17.77;72.31
59487;BME280;45298;54.918;73.504;2023-08-30T11:13:39;98771.88;;;17.70;72.69
59487;BME280;45298;54.918;73.504;2023-08-30T11:16:08;98786.91;;;17.79;73.17
59487;BME280;45298;54.918;73.504;2023-08-30T11:18:40;98814.44;;;17.73;73.06
59487;BME280;45298;54.918;73.504;2023-08-30T11:21:13;98820.50;;;17.67;73.34
59487;BME280;45298;54.918;73.504;2023-08-30T11:23:42;98811.78;;;17.57;73.16
59487;BME280;45298;54.918;73.504;2023-08-30T11:26:10;98788.41;;;17.34;72.94
59487;BME280;45298;54.918;73.504;2023-08-30T11:28:42;98825.75;;;17.44;74.14
59487;BME280;45298;54.918;73.504;2023-08-30T11:31:21;98804.63;;;17.32;73.03
59487;BME280;45298;54.918;73.504;2023-08-30T11:33:52;98750.91;;;17.09;72.85
59487;BME280;45298;54.918;73.504;2023-08-30T11:36:27;98797.41;;;17.41;73.07
59487;BME280;45298;54.918;73.504;2023-08-30T11:38:57;98772.31;;;17.26;73.12
59487;BME280;45298;54.918;73.504;2023-08-30T11:41:26;98773.66;;;17.30;73.82
59487;BME280;45298;54.918;73.504;2023-08-30T11:43:58;98770.47;;;17.26;73.99
59487;BME280;45298;54.918;73.504;2023-08-30T11:46:27;98762.28;;;17.19;74.99
59487;BME280;45298;54.918;73.504;2023-08-30T11:48:56;98771.66;;;17.24;74.59
59487;BME280;45298;54.918;73.504;2023-08-30T11:51:25;98756.75;;;17.13;74.67
59487;BME280;45298;54.918;73.504;2023-08-30T11:53:53;98766.63;;;17.20;74.72
59487;BME280;45298;54.918;73.504;2023-08-30T11:56:23;98765.28;;;17.16;74.97
59487;BME280;45298;54.918;73.504;2023-08-30T11:58:52;98774.34;;;17.15;75.61
59487;BME280;45298;54.918;73.504;2023-08-30T12:01:21;98722.44;;;16.83;76.04
59487;BME280;45298;54.918;73.504;2023-08-30T12:03:50;98759.28;;;17.06;76.69
59487;BME280;45298;54.918;73.504;2023-08-30T12:06:19;98756.25;;;17.01;76.83
59487;BME280;45298;54.918;73.504;2023-08-30T12:08:57;98756.78;;;17.04;77.64
59487;BME280;45298;54.918;73.504;2023-08-30T12:11:27;98753.44;;;17.02;76.95
59487;BME280;45298;54.918;73.504;2023-08-30T12:14:02;98747.22;;;17.02;77.30
59487;BME280;45298;54.918;73.504;2023-08-30T12:16:31;98755.59;;;17.07;77.73
59487;BME280;45298;54.918;73.504;2023-08-30T12:19:11;98722.44;;;16.83;78.19
59487;BME280;45298;54.918;73.504;2023-08-30T12:21:43;98752.72;;;16.92;77.87
59487;BME280;45298;54.918;73.504;2023-08-30T12:24:12;98760.94;;;16.90;77.94
59487;BME280;45298;54.918;73.504;2023-08-30T12:26:43;98707.03;;;16.60;77.62
59487;BME280;45298;54.918;73.504;2023-08-30T12:29:12;98761.94;;;16.81;78.54
59487;BME280;45298;54.918;73.504;2023-08-30T12:31:41;98757.94;;;16.85;78.87
59487;BME280;45298;54.918;73.504;2023-08-30T12:34:09;98770.97;;;16.88;79.27
59487;BME280;45298;54.918;73.504;2023-08-30T12:36:38;98731.31;;;16.67;79.40
59487;BME280;45298;54.918;73.504;2023-08-30T12:39:07;98728.97;;;16.56;79.34
59487;BME280;45298;54.918;73.504;2023-08-30T12:41:38;98720.13;;;16.55;79.67
59487;BME280;45298;54.918;73.504;2023-08-30T12:44:10;98710.22;;;16.47;80.09
59487;BME280;45298;54.918;73.504;2023-08-30T12:46:39;98688.81;;;16.39;80.47
59487;BME280;45298;54.918;73.504;2023-08-30T12:49:08;98677.59;;;16.19;80.44
59487;BME280;45298;54.918;73.504;2023-08-30T12:51:37;98638.59;;;15.92;80.93
59487;BME280;45298;54.918;73.504;2023-08-30T12:54:06;98652.34;;;16.05;81.65
59487;BME280;45298;54.918;73.504;2023-08-30T12:56:35;98675.56;;;16.05;81.69
59487;BME280;45298;54.918;73.504;2023-08-30T12:59:04;98651.28;;;15.90;82.02
59487;BME280;45298;54.918;73.504;2023-08-30T13:01:33;98657.00;;;15.95;82.11
59487;BME280;45298;54.918;73.504;2023-08-30T13:04:02;98670.72;;;16.00;82.68
59487;BME280;45298;54.918;73.504;2023-08-30T13:06:31;98669.53;;;15.94;82.81
59487;BME280;45298;54.918;73.504;2023-08-30T13:09:00;98657.81;;;15.87;83.12